sensor_id;sensor_type;location;lat;lon;timestamp;pressure;altitude;pressure_sealevel;temperature;humidity
60465;BME280;46314;52.392;9.758;2022-09-09T00:01:42;100175.19;;;17.08;81.10
60465;BME280;46314;52.392;9.758;2022-09-09T00:04:14;100172.56;;;16.99;80.50
60465;BME280;46314;52.392;9.758;2022-09-09T00:06:45;100168.97;;;17.14;80.62
60465;BME280;46314;52.392;9.758;2022-09-09T00:09:16;100176.94;;;16.84;80.66
60465;BME280;46314;52.392;9.758;2022-09-09T00:11:45;100171.22;;;16.80;81.01
60465;BME280;46314;52.392;9.758;2022-09-09T00:14:18;100170.56;;;16.71;81.80
60465;BME280;46314;52.392;9.758;2022-09-09T00:16:51;100169.56;;;16.92;80.48
60465;BME280;46314;52.392;9.758;2022-09-09T00:19:24;100169.25;;;16.16;83.47
60465;BME280;46314;52.392;9.758;2022-09-09T00:22:00;100169.34;;;16.84;81.25
60465;BME280;46314;52.392;9.758;2022-09-09T00:24:40;100170.53;;;16.31;83.34
60465;BME280;46314;52.392;9.758;2022-09-09T00:27:23;100170.97;;;16.45;83.08
60465;BME280;46314;52.392;9.758;2022-09-09T00:29:52;100161.78;;;16.20;82.89
60465;BME280;46314;52.392;9.758;2022-09-09T00:32:20;100163.59;;;16.53;81.83
60465;BME280;46314;52.392;9.758;2022-09-09T00:34:49;100162.75;;;16.12;83.39
60465;BME280;46314;52.392;9.758;2022-09-09T00:37:16;100157.31;;;16.43;82.59
60465;BME280;46314;52.392;9.758;2022-09-09T00:39:46;100164.75;;;16.64;81.92
60465;BME280;46314;52.392;9.758;2022-09-09T00:42:16;100165.94;;;16.91;80.99
60465;BME280;46314;52.392;9.758;2022-09-09T00:44:53;100161.16;;;16.79;80.27
60465;BME280;46314;52.392;9.758;2022-09-09T00:47:40;100157.38;;;17.00;79.65
60465;BME280;46314;52.392;9.758;2022-09-09T00:50:21;100157.09;;;16.89;80.17
60465;BME280;46314;52.392;9.758;2022-09-09T00:52:59;100157.47;;;17.03;79.41
60465;BME280;46314;52.392;9.758;2022-09-09T00:55:36;100156.38;;;16.92;79.58
60465;BME280;46314;52.392;9.758;2022-09-09T00:58:06;100162.78;;;16.93;78.11
60465;BME280;46314;52.392;9.758;2022-09-09T01:00:41;100166.66;;;16.35;81.79
60465;BME280;46314;52.392;9.758;2022-09-09T01:03:22;100167.22;;;16.81;79.30
60465;BME280;46314;52.392;9.758;2022-09-09T01:06:02;100165.94;;;16.91;79.49
60465;BME280;46314;52.392;9.758;2022-09-09T01:08:42;100165.06;;;16.75;79.05
60465;BME280;46314;52.392;9.758;2022-09-09T01:11:16;100173.81;;;16.73;78.90
60465;BME280;46314;52.392;9.758;2022-09-09T01:13:47;100174.44;;;16.95;78.47
60465;BME280;46314;52.392;9.758;2022-09-09T01:16:16;100169.19;;;16.93;78.35
60465;BME280;46314;52.392;9.758;2022-09-09T01:18:46;100164.78;;;16.52;80.02
60465;BME280;46314;52.392;9.758;2022-09-09T01:21:19;100168.50;;;16.56;79.79
60465;BME280;46314;52.392;9.758;2022-09-09T01:24:05;100164.31;;;16.78;79.24
60465;BME280;46314;52.392;9.758;2022-09-09T01:26:37;100156.75;;;16.78;78.89
60465;BME280;46314;52.392;9.758;2022-09-09T01:29:07;100158.41;;;16.67;79.26
60465;BME280;46314;52.392;9.758;2022-09-09T01:31:37;100152.09;;;16.70;77.81
60465;BME280;46314;52.392;9.758;2022-09-09T01:34:09;100151.06;;;16.75;78.83
60465;BME280;46314;52.392;9.758;2022-09-09T01:36:41;100148.69;;;16.77;78.61
60465;BME280;46314;52.392;9.758;2022-09-09T01:39:09;100147.25;;;16.83;78.37
60465;BME280;46314;52.392;9.758;2022-09-09T01:41:38;100146.78;;;16.93;77.98
60465;BME280;46314;52.392;9.758;2022-09-09T01:44:05;100153.69;;;16.96;77.09
60465;BME280;46314;52.392;9.758;2022-09-09T01:46:33;100153.31;;;16.57;78.16
60465;BME280;46314;52.392;9.758;2022-09-09T01:49:00;100150.84;;;16.15;80.15
60465;BME280;46314;52.392;9.758;2022-09-09T01:51:29;100153.03;;;16.21;79.73
60465;BME280;46314;52.392;9.758;2022-09-09T01:53:56;100157.16;;;15.87;80.59
60465;BME280;46314;52.392;9.758;2022-09-09T01:56:31;100154.78;;;16.26;79.92
60465;BME280;46314;52.392;9.758;2022-09-09T01:59:18;100156.41;;;16.39;79.63
60465;BME280;46314;52.392;9.758;2022-09-09T02:01:58;100154.06;;;16.41;79.51
60465;BME280;46314;52.392;9.758;2022-09-09T02:04:36;100147.63;;;16.41;78.79
60465;BME280;46314;52.392;9.758;2022-09-09T02:07:09;100156.78;;;16.66;78.07
60465;BME280;46314;52.392;9.758;2022-09-09T02:09:42;100164.88;;;16.55;78.76
60465;BME280;46314;52.392;9.758;2022-09-09T02:12:14;100157.75;;;15.93;80.85
60465;BME280;46314;52.392;9.758;2022-09-09T02:14:48;100150.50;;;16.04;81.43
60465;BME280;46314;52.392;9.758;2022-09-09T02:17:19;100153.84;;;16.34;79.84
60465;BME280;46314;52.392;9.758;2022-09-09T02:19:53;100150.63;;;16.60;78.54
60465;BME280;46314;52.392;9.758;2022-09-09T02:22:24;100160.16;;;16.31;79.68
60465;BME280;46314;52.392;9.758;2022-09-09T02:24:52;100149.81;;;16.07;80.38
60465;BME280;46314;52.392;9.758;2022-09-09T02:27:22;100150.91;;;16.43;80.02
60465;BME280;46314;52.392;9.758;2022-09-09T02:29:52;100146.09;;;16.03;81.11
60465;BME280;46314;52.392;9.758;2022-09-09T02:32:22;100143.41;;;16.06;81.89
60465;BME280;46314;52.392;9.758;2022-09-09T02:34:52;100155.97;;;16.00;81.71
60465;BME280;46314;52.392;9.758;2022-09-09T02:37:24;100148.09;;;15.78;81.92
60465;BME280;46314;52.392;9.758;2022-09-09T02:39:52;100145.53;;;15.85;82.82
60465;BME280;46314;52.392;9.758;2022-09-09T02:42:19;100146.13;;;16.43;80.11
60465;BME280;46314;52.392;9.758;2022-09-09T02:44:45;100142.66;;;16.34;80.17
60465;BME280;46314;52.392;9.758;2022-09-09T02:47:25;100148.63;;;16.20;80.35
60465;BME280;46314;52.392;9.758;2022-09-09T02:50:02;100148.38;;;16.38;79.85
60465;BME280;46314;52.392;9.758;2022-09-09T02:52:36;100150.50;;;16.57;79.24
60465;BME280;46314;52.392;9.758;2022-09-09T02:55:09;100140.53;;;16.43;79.82
60465;BME280;46314;52.392;9.758;2022-09-09T02:57:38;100146.47;;;16.42;80.57
60465;BME280;46314;52.392;9.758;2022-09-09T03:00:08;100149.44;;;16.61;79.38
60465;BME280;46314;52.392;9.758;2022-09-09T03:02:36;100151.00;;;16.59;79.99
60465;BME280;46314;52.392;9.758;2022-09-09T03:05:03;100151.25;;;16.54;80.12
60465;BME280;46314;52.392;9.758;2022-09-09T03:07:29;100146.22;;;15.94;82.05
60465;BME280;46314;52.392;9.758;2022-09-09T03:09:56;100156.84;;;16.54;79.80
60465;BME280;46314;52.392;9.758;2022-09-09T03:12:22;100165.75;;;16.31;81.26
60465;BME280;46314;52.392;9.758;2022-09-09T03:14:49;100163.16;;;16.79;78.76
60465;BME280;46314;52.392;9.758;2022-09-09T03:17:15;100157.84;;;16.61;80.18
60465;BME280;46314;52.392;9.758;2022-09-09T03:19:43;100161.09;;;16.11;81.33
60465;BME280;46314;52.392;9.758;2022-09-09T03:22:10;100159.63;;;16.54;80.47
60465;BME280;46314;52.392;9.758;2022-09-09T03:24:37;100156.47;;;16.15;82.87
60465;BME280;46314;52.392;9.758;2022-09-09T03:27:03;100156.81;;;16.13;82.41
60465;BME280;46314;52.392;9.758;2022-09-09T03:29:30;100158.28;;;16.23;82.54
60465;BME280;46314;52.392;9.758;2022-09-09T03:31:56;100164.25;;;16.62;80.93
60465;BME280;46314;52.392;9.758;2022-09-09T03:34:23;100156.91;;;16.29;82.18
60465;BME280;46314;52.392;9.758;2022-09-09T03:36:51;100156.16;;;16.32;82.41
60465;BME280;46314;52.392;9.758;2022-09-09T03:39:17;100158.50;;;16.30;82.54
60465;BME280;46314;52.392;9.758;2022-09-09T03:41:44;100159.25;;;16.15;83.30
60465;BME280;46314;52.392;9.758;2022-09-09T03:44:10;100154.19;;;16.45;82.38
60465;BME280;46314;52.392;9.758;2022-09-09T03:46:36;100158.16;;;16.32;83.04
60465;BME280;46314;52.392;9.758;2022-09-09T03:49:03;100158.66;;;16.62;81.38
60465;BME280;46314;52.392;9.758;2022-09-09T03:51:29;100153.91;;;16.62;81.29
60465;BME280;46314;52.392;9.758;2022-09-09T03:53:57;100154.63;;;16.88;80.39
60465;BME280;46314;52.392;9.758;2022-09-09T03:56:24;100150.88;;;16.96;79.44
60465;BME280;46314;52.392;9.758;2022-09-09T03:58:50;100151.47;;;16.49;81.06
60465;BME280;46314;52.392;9.758;2022-09-09T04:01:17;100156.56;;;16.71;80.52
60465;BME280;46314;52.392;9.758;2022-09-09T04:03:43;100156.63;;;16.87;80.03
60465;BME280;46314;52.392;9.758;2022-09-09T04:06:11;100154.34;;;17.21;79.23
60465;BME280;46314;52.392;9.758;2022-09-09T04:08:38;100164.31;;;16.90;79.96
60465;BME280;46314;52.392;9.758;2022-09-09T04:11:06;100162.00;;;16.39;82.47
60465;BME280;46314;52.392;9.758;2022-09-09T04:13:33;100161.22;;;16.67;81.94
60465;BME280;46314;52.392;9.758;2022-09-09T04:16:00;100156.84;;;16.94;80.69
60465;BME280;46314;52.392;9.758;2022-09-09T04:18:27;100156.75;;;16.78;80.65
60465;BME280;46314;52.392;9.758;2022-09-09T04:20:54;100157.31;;;17.12;79.98
60465;BME280;46314;52.392;9.758;2022-09-09T04:23:20;100152.09;;;17.27;78.94
60465;BME280;46314;52.392;9.758;2022-09-09T04:25:48;100151.56;;;17.21;78.52
60465;BME280;46314;52.392;9.758;2022-09-09T04:28:17;100153.44;;;17.01;79.72
60465;BME280;46314;52.392;9.758;2022-09-09T04:30:45;100155.19;;;16.53;81.69
60465;BME280;46314;52.392;9.758;2022-09-09T04:33:12;100155.84;;;17.02;79.58
60465;BME280;46314;52.392;9.758;2022-09-09T04:35:44;100161.00;;;16.60;81.84
60465;BME280;46314;52.392;9.758;2022-09-09T04:38:10;100162.28;;;16.62;82.20
60465;BME280;46314;52.392;9.758;2022-09-09T04:40:37;100158.00;;;16.53;82.55
60465;BME280;46314;52.392;9.758;2022-09-09T04:43:03;100160.66;;;17.18;80.72
60465;BME280;46314;52.392;9.758;2022-09-09T04:45:31;100168.38;;;16.52;82.88
60465;BME280;46314;52.392;9.758;2022-09-09T04:47:57;100165.78;;;17.00;81.36
60465;BME280;46314;52.392;9.758;2022-09-09T04:50:24;100171.44;;;16.47;82.86
60465;BME280;46314;52.392;9.758;2022-09-09T04:52:50;100173.94;;;16.64;82.74
60465;BME280;46314;52.392;9.758;2022-09-09T04:55:17;100179.84;;;17.16;80.84
60465;BME280;46314;52.392;9.758;2022-09-09T04:57:43;100178.63;;;17.01;80.67
60465;BME280;46314;52.392;9.758;2022-09-09T05:00:11;100179.69;;;17.25;78.99
60465;BME280;46314;52.392;9.758;2022-09-09T05:02:39;100175.25;;;17.39;79.73
60465;BME280;46314;52.392;9.758;2022-09-09T05:05:06;100180.53;;;17.57;78.75
60465;BME280;46314;52.392;9.758;2022-09-09T05:07:33;100177.81;;;17.45;79.26
60465;BME280;46314;52.392;9.758;2022-09-09T05:09:59;100182.53;;;17.56;78.67
60465;BME280;46314;52.392;9.758;2022-09-09T05:12:25;100177.09;;;17.48;79.41
60465;BME280;46314;52.392;9.758;2022-09-09T05:14:52;100181.53;;;17.49;79.32
60465;BME280;46314;52.392;9.758;2022-09-09T05:17:18;100181.00;;;17.75;78.11
60465;BME280;46314;52.392;9.758;2022-09-09T05:19:46;100184.88;;;17.54;78.54
60465;BME280;46314;52.392;9.758;2022-09-09T05:22:12;100178.47;;;17.54;78.92
60465;BME280;46314;52.392;9.758;2022-09-09T05:24:39;100177.63;;;17.53;79.16
60465;BME280;46314;52.392;9.758;2022-09-09T05:27:05;100179.50;;;17.17;80.33
60465;BME280;46314;52.392;9.758;2022-09-09T05:29:32;100191.63;;;17.37;80.39
60465;BME280;46314;52.392;9.758;2022-09-09T05:31:59;100191.47;;;17.46;80.08
60465;BME280;46314;52.392;9.758;2022-09-09T05:34:28;100191.56;;;17.50;79.50
60465;BME280;46314;52.392;9.758;2022-09-09T05:36:56;100185.50;;;17.48;79.29
60465;BME280;46314;52.392;9.758;2022-09-09T05:39:22;100185.41;;;17.44;79.94
60465;BME280;46314;52.392;9.758;2022-09-09T05:41:49;100188.13;;;17.72;78.47
60465;BME280;46314;52.392;9.758;2022-09-09T05:44:15;100189.41;;;17.43;79.20
60465;BME280;46314;52.392;9.758;2022-09-09T05:46:42;100198.81;;;17.51;79.80
60465;BME280;46314;52.392;9.758;2022-09-09T05:49:08;100188.97;;;17.13;81.76
60465;BME280;46314;52.392;9.758;2022-09-09T05:51:34;100192.91;;;17.40;79.39
60465;BME280;46314;52.392;9.758;2022-09-09T05:54:02;100188.94;;;17.57;79.17
60465;BME280;46314;52.392;9.758;2022-09-09T05:56:29;100201.13;;;17.33;79.83
60465;BME280;46314;52.392;9.758;2022-09-09T05:58:56;100197.06;;;17.46;80.60
60465;BME280;46314;52.392;9.758;2022-09-09T06:01:24;100204.13;;;17.40;79.93
60465;BME280;46314;52.392;9.758;2022-09-09T06:03:51;100212.03;;;17.66;78.92
60465;BME280;46314;52.392;9.758;2022-09-09T06:06:19;100219.22;;;17.35;79.64
60465;BME280;46314;52.392;9.758;2022-09-09T06:08:46;100207.88;;;16.75;83.23
60465;BME280;46314;52.392;9.758;2022-09-09T06:11:15;100210.28;;;17.01;81.92
60465;BME280;46314;52.392;9.758;2022-09-09T06:13:43;100208.78;;;17.20;80.98
60465;BME280;46314;52.392;9.758;2022-09-09T06:16:10;100206.88;;;17.68;79.68
60465;BME280;46314;52.392;9.758;2022-09-09T06:18:37;100205.66;;;17.37;80.08
60465;BME280;46314;52.392;9.758;2022-09-09T06:21:06;100214.97;;;17.86;78.94
60465;BME280;46314;52.392;9.758;2022-09-09T06:23:33;100222.66;;;18.05;77.80
60465;BME280;46314;52.392;9.758;2022-09-09T06:26:01;100223.81;;;18.20;77.62
60465;BME280;46314;52.392;9.758;2022-09-09T06:28:29;100221.00;;;18.20;76.94
60465;BME280;46314;52.392;9.758;2022-09-09T06:30:59;100217.41;;;18.19;76.98
60465;BME280;46314;52.392;9.758;2022-09-09T06:33:26;100218.13;;;18.16;77.27
60465;BME280;46314;52.392;9.758;2022-09-09T06:35:52;100218.09;;;18.32;76.57
60465;BME280;46314;52.392;9.758;2022-09-09T06:38:18;100208.81;;;17.96;78.41
60465;BME280;46314;52.392;9.758;2022-09-09T06:40:51;100217.59;;;18.10;78.54
60465;BME280;46314;52.392;9.758;2022-09-09T06:43:17;100213.88;;;18.58;77.05
60465;BME280;46314;52.392;9.758;2022-09-09T06:45:52;100215.91;;;18.25;77.87
60465;BME280;46314;52.392;9.758;2022-09-09T06:48:19;100209.38;;;18.72;76.30
60465;BME280;46314;52.392;9.758;2022-09-09T06:50:45;100204.53;;;18.53;76.11
60465;BME280;46314;52.392;9.758;2022-09-09T06:53:11;100199.75;;;18.54;76.76
60465;BME280;46314;52.392;9.758;2022-09-09T06:55:38;100203.63;;;17.82;79.40
60465;BME280;46314;52.392;9.758;2022-09-09T06:58:07;100201.59;;;18.30;77.79
60465;BME280;46314;52.392;9.758;2022-09-09T07:00:34;100210.47;;;18.32;78.20
60465;BME280;46314;52.392;9.758;2022-09-09T07:03:02;100213.06;;;18.77;76.43
60465;BME280;46314;52.392;9.758;2022-09-09T07:05:29;100211.59;;;18.63;77.83
60465;BME280;46314;52.392;9.758;2022-09-09T07:07:55;100212.66;;;19.14;76.28
60465;BME280;46314;52.392;9.758;2022-09-09T07:10:21;100210.75;;;18.27;77.81
60465;BME280;46314;52.392;9.758;2022-09-09T07:12:50;100204.56;;;18.73;78.23
60465;BME280;46314;52.392;9.758;2022-09-09T07:15:17;100201.75;;;19.08;76.67
60465;BME280;46314;52.392;9.758;2022-09-09T07:17:43;100212.88;;;19.05;76.38
60465;BME280;46314;52.392;9.758;2022-09-09T07:20:11;100210.31;;;19.16;75.40
60465;BME280;46314;52.392;9.758;2022-09-09T07:22:38;100201.53;;;19.83;72.84
60465;BME280;46314;52.392;9.758;2022-09-09T07:25:05;100209.53;;;19.38;74.55
60465;BME280;46314;52.392;9.758;2022-09-09T07:27:32;100214.25;;;18.56;77.64
60465;BME280;46314;52.392;9.758;2022-09-09T07:29:58;100219.34;;;18.50;78.75
60465;BME280;46314;52.392;9.758;2022-09-09T07:32:25;100213.66;;;18.66;79.51
60465;BME280;46314;52.392;9.758;2022-09-09T07:34:51;100218.50;;;19.05;78.76
60465;BME280;46314;52.392;9.758;2022-09-09T07:37:19;100214.81;;;18.46;81.13
60465;BME280;46314;52.392;9.758;2022-09-09T07:39:45;100222.47;;;18.29;81.37
60465;BME280;46314;52.392;9.758;2022-09-09T07:42:12;100216.38;;;18.98;78.62
60465;BME280;46314;52.392;9.758;2022-09-09T07:44:38;100218.59;;;19.28;77.13
60465;BME280;46314;52.392;9.758;2022-09-09T07:47:05;100218.88;;;19.23;76.97
60465;BME280;46314;52.392;9.758;2022-09-09T07:49:31;100216.66;;;18.38;80.13
60465;BME280;46314;52.392;9.758;2022-09-09T07:51:58;100218.97;;;19.26;77.75
60465;BME280;46314;52.392;9.758;2022-09-09T07:54:26;100220.69;;;18.76;78.82
60465;BME280;46314;52.392;9.758;2022-09-09T07:56:52;100232.88;;;19.19;75.21
60465;BME280;46314;52.392;9.758;2022-09-09T07:59:19;100231.69;;;19.63;75.52
60465;BME280;46314;52.392;9.758;2022-09-09T08:01:48;100231.94;;;19.35;75.42
60465;BME280;46314;52.392;9.758;2022-09-09T08:04:17;100236.13;;;19.21;78.09
60465;BME280;46314;52.392;9.758;2022-09-09T08:06:47;100229.44;;;18.90;77.71
60465;BME280;46314;52.392;9.758;2022-09-09T08:09:14;100236.59;;;19.46;74.58
60465;BME280;46314;52.392;9.758;2022-09-09T08:11:42;100233.69;;;19.62;75.37
60465;BME280;46314;52.392;9.758;2022-09-09T08:14:10;100224.22;;;19.94;73.70
60465;BME280;46314;52.392;9.758;2022-09-09T08:16:38;100228.66;;;19.52;74.18
60465;BME280;46314;52.392;9.758;2022-09-09T08:19:05;100230.91;;;19.43;75.83
60465;BME280;46314;52.392;9.758;2022-09-09T08:21:32;100229.53;;;19.99;73.10
60465;BME280;46314;52.392;9.758;2022-09-09T08:24:00;100223.59;;;19.38;74.52
60465;BME280;46314;52.392;9.758;2022-09-09T08:26:29;100230.44;;;19.60;74.61
60465;BME280;46314;52.392;9.758;2022-09-09T08:28:58;100228.19;;;19.70;72.51
60465;BME280;46314;52.392;9.758;2022-09-09T08:31:27;100220.44;;;19.82;74.30
60465;BME280;46314;52.392;9.758;2022-09-09T08:33:54;100229.41;;;19.92;73.70
60465;BME280;46314;52.392;9.758;2022-09-09T08:36:22;100235.25;;;19.79;73.87
60465;BME280;46314;52.392;9.758;2022-09-09T08:38:50;100235.97;;;19.76;74.18
60465;BME280;46314;52.392;9.758;2022-09-09T08:41:29;100238.28;;;19.71;72.12
60465;BME280;46314;52.392;9.758;2022-09-09T08:44:04;100242.97;;;19.43;74.44
60465;BME280;46314;52.392;9.758;2022-09-09T08:46:39;100248.03;;;19.77;75.01
60465;BME280;46314;52.392;9.758;2022-09-09T08:49:18;100252.13;;;19.79;73.62
60465;BME280;46314;52.392;9.758;2022-09-09T08:51:48;100253.34;;;20.05;72.16
60465;BME280;46314;52.392;9.758;2022-09-09T08:54:15;100257.97;;;19.71;73.88
60465;BME280;46314;52.392;9.758;2022-09-09T08:57:03;100260.72;;;19.67;69.38
60465;BME280;46314;52.392;9.758;2022-09-09T08:59:39;100261.94;;;20.35;70.12
60465;BME280;46314;52.392;9.758;2022-09-09T09:02:15;100266.50;;;20.20;69.17
60465;BME280;46314;52.392;9.758;2022-09-09T09:04:52;100262.88;;;19.74;68.97
60465;BME280;46314;52.392;9.758;2022-09-09T09:07:30;100259.31;;;20.23;66.66
60465;BME280;46314;52.392;9.758;2022-09-09T09:10:02;100260.41;;;20.95;64.56
60465;BME280;46314;52.392;9.758;2022-09-09T09:12:41;100266.50;;;20.70;65.55
60465;BME280;46314;52.392;9.758;2022-09-09T09:17:43;100267.41;;;20.51;65.31
60465;BME280;46314;52.392;9.758;2022-09-09T09:20:12;100266.63;;;20.77;66.54
60465;BME280;46314;52.392;9.758;2022-09-09T09:22:44;100264.59;;;20.78;65.37
60465;BME280;46314;52.392;9.758;2022-09-09T09:25:17;100261.78;;;21.42;63.02
60465;BME280;46314;52.392;9.758;2022-09-09T09:27:49;100258.31;;;21.22;64.81
60465;BME280;46314;52.392;9.758;2022-09-09T09:30:22;100262.47;;;20.71;66.00
60465;BME280;46314;52.392;9.758;2022-09-09T09:32:59;100264.47;;;20.97;65.59
60465;BME280;46314;52.392;9.758;2022-09-09T09:35:27;100258.56;;;21.10;64.10
60465;BME280;46314;52.392;9.758;2022-09-09T09:37:54;100269.28;;;21.27;66.46
60465;BME280;46314;52.392;9.758;2022-09-09T09:40:48;100257.84;;;20.33;65.14
60465;BME280;46314;52.392;9.758;2022-09-09T09:43:19;100265.44;;;21.43;61.43
60465;BME280;46314;52.392;9.758;2022-09-09T09:45:47;100264.00;;;21.26;61.81
60465;BME280;46314;52.392;9.758;2022-09-09T09:48:34;100254.78;;;21.29;60.81
60465;BME280;46314;52.392;9.758;2022-09-09T09:51:05;100252.22;;;21.88;59.64
60465;BME280;46314;52.392;9.758;2022-09-09T09:53:36;100248.75;;;22.09;58.74
60465;BME280;46314;52.392;9.758;2022-09-09T09:56:06;100246.69;;;22.47;59.01
60465;BME280;46314;52.392;9.758;2022-09-09T09:58:46;100236.00;;;21.44;59.40
60465;BME280;46314;52.392;9.758;2022-09-09T10:01:20;100239.84;;;20.94;62.75
60465;BME280;46314;52.392;9.758;2022-09-09T10:03:50;100232.84;;;20.81;64.27
60465;BME280;46314;52.392;9.758;2022-09-09T10:06:29;100244.63;;;20.90;62.35
60465;BME280;46314;52.392;9.758;2022-09-09T10:08:55;100240.16;;;21.91;61.45
60465;BME280;46314;52.392;9.758;2022-09-09T10:11:32;100233.25;;;22.33;58.21
60465;BME280;46314;52.392;9.758;2022-09-09T10:14:13;100233.66;;;22.35;60.41
60465;BME280;46314;52.392;9.758;2022-09-09T10:16:53;100223.47;;;22.23;62.50
60465;BME280;46314;52.392;9.758;2022-09-09T10:19:30;100233.13;;;22.19;59.31
60465;BME280;46314;52.392;9.758;2022-09-09T10:22:01;100231.59;;;21.84;58.94
60465;BME280;46314;52.392;9.758;2022-09-09T10:24:48;100241.38;;;21.93;57.84
60465;BME280;46314;52.392;9.758;2022-09-09T10:27:22;100224.97;;;22.10;57.11
60465;BME280;46314;52.392;9.758;2022-09-09T10:30:01;100231.28;;;21.92;58.24
60465;BME280;46314;52.392;9.758;2022-09-09T10:32:37;100233.19;;;21.44;57.99
60465;BME280;46314;52.392;9.758;2022-09-09T10:35:09;100231.03;;;21.33;58.96
60465;BME280;46314;52.392;9.758;2022-09-09T10:37:44;100234.53;;;21.53;59.68
60465;BME280;46314;52.392;9.758;2022-09-09T10:40:26;100227.13;;;21.42;61.93
60465;BME280;46314;52.392;9.758;2022-09-09T10:43:00;100228.53;;;21.25;60.13
60465;BME280;46314;52.392;9.758;2022-09-09T10:45:33;100230.75;;;21.76;60.63
60465;BME280;46314;52.392;9.758;2022-09-09T10:48:19;100218.34;;;21.47;58.48
60465;BME280;46314;52.392;9.758;2022-09-09T10:50:55;100225.69;;;21.55;59.95
60465;BME280;46314;52.392;9.758;2022-09-09T10:53:40;100235.78;;;20.61;62.93
60465;BME280;46314;52.392;9.758;2022-09-09T10:56:13;100246.78;;;21.01;60.13
60465;BME280;46314;52.392;9.758;2022-09-09T10:58:45;100248.88;;;20.77;62.94
60465;BME280;46314;52.392;9.758;2022-09-09T11:01:19;100249.31;;;21.09;61.04
60465;BME280;46314;52.392;9.758;2022-09-09T11:03:53;100240.53;;;21.14;61.65
60465;BME280;46314;52.392;9.758;2022-09-09T11:06:25;100231.50;;;21.35;61.53
60465;BME280;46314;52.392;9.758;2022-09-09T11:08:55;100236.25;;;20.97;62.10
60465;BME280;46314;52.392;9.758;2022-09-09T11:11:27;100230.41;;;20.79;63.48
60465;BME280;46314;52.392;9.758;2022-09-09T11:13:57;100238.41;;;21.08;61.88
60465;BME280;46314;52.392;9.758;2022-09-09T11:16:29;100238.53;;;20.85;62.47
60465;BME280;46314;52.392;9.758;2022-09-09T11:19:03;100229.63;;;20.83;64.06
60465;BME280;46314;52.392;9.758;2022-09-09T11:21:34;100221.28;;;20.63;63.74
60465;BME280;46314;52.392;9.758;2022-09-09T11:24:08;100225.00;;;20.67;64.45
60465;BME280;46314;52.392;9.758;2022-09-09T11:26:40;100225.91;;;20.75;64.99
60465;BME280;46314;52.392;9.758;2022-09-09T11:29:22;100242.66;;;20.64;65.83
60465;BME280;46314;52.392;9.758;2022-09-09T11:32:03;100247.47;;;20.37;67.56
60465;BME280;46314;52.392;9.758;2022-09-09T11:34:42;100248.44;;;19.98;70.51
60465;BME280;46314;52.392;9.758;2022-09-09T11:37:21;100266.44;;;19.94;72.05
60465;BME280;46314;52.392;9.758;2022-09-09T11:40:09;100278.66;;;19.39;72.70
60465;BME280;46314;52.392;9.758;2022-09-09T11:42:40;100267.84;;;19.41;73.54
60465;BME280;46314;52.392;9.758;2022-09-09T11:45:21;100276.28;;;19.22;71.13
60465;BME280;46314;52.392;9.758;2022-09-09T11:47:53;100265.47;;;18.85;72.81
60465;BME280;46314;52.392;9.758;2022-09-09T11:50:29;100267.66;;;18.24;74.43
60465;BME280;46314;52.392;9.758;2022-09-09T11:53:05;100269.72;;;17.95;74.05
60465;BME280;46314;52.392;9.758;2022-09-09T11:55:33;100264.03;;;18.75;70.25
60465;BME280;46314;52.392;9.758;2022-09-09T11:58:01;100265.44;;;18.49;72.54
60465;BME280;46314;52.392;9.758;2022-09-09T12:00:32;100264.75;;;18.21;74.36
60465;BME280;46314;52.392;9.758;2022-09-09T12:02:59;100258.19;;;17.85;73.71
60465;BME280;46314;52.392;9.758;2022-09-09T12:05:37;100256.38;;;17.76;74.31
60465;BME280;46314;52.392;9.758;2022-09-09T12:08:06;100252.25;;;18.02;74.21
60465;BME280;46314;52.392;9.758;2022-09-09T12:10:37;100246.53;;;18.14;74.67
60465;BME280;46314;52.392;9.758;2022-09-09T12:13:08;100248.03;;;18.60;74.08
60465;BME280;46314;52.392;9.758;2022-09-09T12:15:47;100252.56;;;19.00;72.33
60465;BME280;46314;52.392;9.758;2022-09-09T12:18:15;100260.06;;;18.60;73.82
60465;BME280;46314;52.392;9.758;2022-09-09T12:20:55;100262.59;;;19.01;73.11
60465;BME280;46314;52.392;9.758;2022-09-09T12:23:30;100256.03;;;19.32;71.74
60465;BME280;46314;52.392;9.758;2022-09-09T12:26:05;100254.44;;;18.60;74.13
60465;BME280;46314;52.392;9.758;2022-09-09T12:28:45;100260.31;;;19.45;71.61
60465;BME280;46314;52.392;9.758;2022-09-09T12:31:19;100264.44;;;19.52;71.05
60465;BME280;46314;52.392;9.758;2022-09-09T12:33:48;100256.88;;;19.56;71.72
60465;BME280;46314;52.392;9.758;2022-09-09T12:36:18;100262.19;;;19.61;70.79
60465;BME280;46314;52.392;9.758;2022-09-09T12:38:45;100254.25;;;20.09;70.91
60465;BME280;46314;52.392;9.758;2022-09-09T12:41:19;100254.16;;;20.55;69.62
60465;BME280;46314;52.392;9.758;2022-09-09T12:43:46;100250.56;;;20.82;69.62
60465;BME280;46314;52.392;9.758;2022-09-09T12:46:26;100235.88;;;20.99;69.00
60465;BME280;46314;52.392;9.758;2022-09-09T12:48:55;100242.28;;;20.66;66.04
60465;BME280;46314;52.392;9.758;2022-09-09T12:51:27;100235.63;;;20.54;66.61
60465;BME280;46314;52.392;9.758;2022-09-09T12:53:55;100234.56;;;20.36;66.23
60465;BME280;46314;52.392;9.758;2022-09-09T12:56:23;100233.88;;;20.69;64.74
60465;BME280;46314;52.392;9.758;2022-09-09T12:58:51;100233.41;;;20.14;66.07
60465;BME280;46314;52.392;9.758;2022-09-09T13:01:21;100233.34;;;20.90;61.80
60465;BME280;46314;52.392;9.758;2022-09-09T13:03:48;100235.31;;;20.86;62.67
60465;BME280;46314;52.392;9.758;2022-09-09T13:06:21;100228.72;;;21.39;62.44
60465;BME280;46314;52.392;9.758;2022-09-09T13:08:58;100226.84;;;21.16;64.50
60465;BME280;46314;52.392;9.758;2022-09-09T13:11:27;100226.63;;;20.98;66.73